Time;durP1;ratioP1;P1;durP2;ratioP2;P2;SDS_P1;SDS_P2;PMS_P1;PMS_P2;Temp;Humidity;BMP_temperature;BMP_pressure;BME280_temperature;BME280_humidity;BME280_pressure;Samples;Min_cycle;Max_cycle;Signal;HPM_P1;HPM_P2
2023/01/08 00:00:52;;;;;;;54.83;36.92;;;;;;;1.39;100.00;101491.94;5007006;28;20045;-77
2023/01/08 00:03:18;;;;;;;65.20;31.17;;;;;;;1.29;100.00;101507.75;5004839;28;20486;-76
2023/01/08 00:05:43;;;;;;;64.68;35.08;;;;;;;0.52;100.00;101376.00;5006512;28;20099;-76
2023/01/08 00:08:09;;;;;;;53.13;30.92;;;;;;;0.35;100.00;101357.88;5011506;28;20641;-81
2023/01/08 00:10:37;;;;;;;49.58;27.30;;;;;;;0.23;100.00;101345.97;5006331;28;20052;-78
2023/01/08 00:13:04;;;;;;;43.25;28.85;;;;;;;0.44;100.00;101380.72;5001222;28;20525;-78
2023/01/08 00:15:30;;;;;;;44.78;28.83;;;;;;;1.29;100.00;101517.19;5002528;28;20077;-78
2023/01/08 00:17:56;;;;;;;36.00;26.20;;;;;;;0.58;100.00;101403.03;5006211;28;20052;-76
2023/01/08 00:20:22;;;;;;;44.85;26.60;;;;;;;0.36;100.00;101366.50;5001662;28;20544;-80
2023/01/08 00:22:49;;;;;;;46.13;27.50;;;;;;;1.00;100.00;101480.28;5005836;28;20061;-81
2023/01/08 00:25:15;;;;;;;37.20;23.15;;;;;;;1.18;100.00;101501.97;4994284;28;20080;-76
2023/01/08 00:27:40;;;;;;;52.30;28.15;;;;;;;0.37;100.00;101371.75;5005536;28;20038;-77
2023/01/08 00:30:06;;;;;;;48.03;28.38;;;;;;;1.06;100.00;101490.97;5007150;28;20453;-76
2023/01/08 00:32:32;;;;;;;49.83;25.98;;;;;;;1.12;100.00;101506.81;5002971;28;20069;-79
2023/01/08 00:34:57;;;;;;;45.58;25.67;;;;;;;0.77;100.00;101451.50;5012532;28;20120;-75
2023/01/08 00:37:24;;;;;;;50.90;25.88;;;;;;;1.12;100.00;101513.66;4999387;28;20049;-76
2023/01/08 00:39:50;;;;;;;34.53;22.48;;;;;;;0.63;100.00;101436.88;4999546;28;20056;-76
2023/01/08 00:42:15;;;;;;;45.58;24.35;;;;;;;1.05;100.00;101513.34;5006671;28;20054;-76
2023/01/08 00:44:40;;;;;;;50.45;24.65;;;;;;;0.28;100.00;101401.31;5010412;28;20053;-77
2023/01/08 00:47:06;;;;;;;52.13;27.20;;;;;;;0.94;100.00;101517.03;5000420;28;20482;-75
2023/01/08 00:49:31;;;;;;;44.63;24.02;;;;;;;0.26;100.00;101413.22;5003642;28;20577;-75
2023/01/08 00:51:57;;;;;;;35.65;22.38;;;;;;;0.80;100.00;101523.97;5005437;28;20379;-77
2023/01/08 00:54:22;;;;;;;40.83;23.15;;;;;;;0.41;100.00;101396.94;5005476;28;20426;-77
2023/01/08 00:56:48;;;;;;;36.00;22.42;;;;;;;0.56;100.00;101422.75;5006479;28;20045;-75
2023/01/08 00:59:13;;;;;;;39.55;23.20;;;;;;;1.23;100.00;101502.25;5009118;28;21329;-75
2023/01/08 01:01:39;;;;;;;32.25;20.60;;;;;;;0.35;100.00;101400.84;5001849;28;20123;-76
2023/01/08 01:04:04;;;;;;;37.97;23.83;;;;;;;0.66;100.00;101410.38;5006422;28;20053;-79
2023/01/08 01:06:30;;;;;;;40.25;22.02;;;;;;;1.52;100.00;101528.81;5007840;28;20046;-76
2023/01/08 01:08:56;;;;;;;39.15;24.92;;;;;;;1.53;100.00;101523.72;5005797;28;20129;-76
2023/01/08 01:11:26;;;;;;;42.47;21.95;;;;;;;1.65;100.00;101506.25;5006438;28;20569;-77
2023/01/08 01:13:56;;;;;;;38.40;23.48;;;;;;;0.89;100.00;101393.53;5002855;28;20038;-76
2023/01/08 01:16:23;;;;;;;38.20;25.35;;;;;;;1.49;100.00;101503.66;5006599;28;20050;-77
2023/01/08 01:18:48;;;;;;;38.97;22.80;;;;;;;1.63;100.00;101491.47;5004671;28;20088;-77
2023/01/08 01:21:25;;;;;;;45.80;24.90;;;;;;;1.40;100.00;101469.53;4999963;28;20881;-77
2023/01/08 01:23:59;;;;;;;39.45;19.83;;;;;;;1.73;100.00;101487.69;5001352;28;20046;-77
2023/01/08 01:26:26;;;;;;;38.22;22.42;;;;;;;0.41;100.00;101337.56;5002077;28;20030;-76
2023/01/08 01:28:54;;;;;;;37.67;23.25;;;;;;;1.43;100.00;101464.56;5004693;28;20041;-77
2023/01/08 01:31:21;;;;;;;35.83;22.63;;;;;;;1.03;100.00;101358.97;5008987;28;20084;-78
2023/01/08 01:33:47;;;;;;;36.55;21.90;;;;;;;1.83;100.00;101461.50;5010082;28;20462;-78
2023/01/08 01:36:14;;;;;;;33.55;20.30;;;;;;;1.74;100.00;101435.16;5005323;28;20045;-78
2023/01/08 01:38:44;;;;;;;33.60;19.95;;;;;;;1.18;100.00;101325.34;5011199;28;20054;-76
2023/01/08 01:41:37;;;;;;;39.47;23.30;;;;;;;1.04;100.00;101304.81;5014153;28;20041;-76
2023/01/08 01:44:35;;;;;;;34.47;21.25;;;;;;;1.98;100.00;101454.50;5003558;28;20058;-79
2023/01/08 01:47:35;;;;;;;44.30;21.45;;;;;;;1.62;100.00;101456.97;5003898;28;20050;-76
2023/01/08 01:50:06;;;;;;;46.47;21.23;;;;;;;1.48;100.00;101458.81;5006309;28;20069;-76
2023/01/08 01:52:37;;;;;;;32.00;21.83;;;;;;;1.17;100.00;101437.28;5006422;28;20046;-78
2023/01/08 01:55:04;;;;;;;27.90;18.50;;;;;;;0.23;100.00;101284.91;5004960;28;20955;-78
2023/01/08 01:57:30;;;;;;;32.72;19.00;;;;;;;1.30;100.00;101465.56;5007772;28;20046;-79
2023/01/08 01:59:57;;;;;;;57.42;20.48;;;;;;;1.36;100.00;101459.84;5004464;28;20533;-76
2023/01/08 02:02:23;;;;;;;40.75;21.63;;;;;;;0.66;100.00;101312.22;4998663;28;20038;-76
2023/01/08 02:04:49;;;;;;;35.58;21.80;;;;;;;1.21;100.00;101432.34;5009754;28;20025;-78
2023/01/08 02:07:37;;;;;;;33.67;20.38;;;;;;;1.40;100.00;101465.25;5010676;28;20065;-79
2023/01/08 02:10:09;;;;;;;37.17;22.30;;;;;;;1.41;100.00;101454.13;5003256;28;20227;-78
2023/01/08 02:12:55;;;;;;;33.30;20.38;;;;;;;1.51;100.00;101471.00;5002501;28;20181;-80
2023/01/08 02:15:39;;;;;;;32.83;20.77;;;;;;;1.20;100.00;101347.00;5014919;28;20046;-78
2023/01/08 02:18:10;;;;;;;29.38;20.00;;;;;;;0.81;100.00;101349.19;5007920;28;20076;-77
2023/01/08 02:20:38;;;;;;;28.52;19.83;;;;;;;1.16;100.00;101454.47;4999337;28;20087;-79
2023/01/08 02:23:07;;;;;;;46.35;23.35;;;;;;;1.04;100.00;101471.91;5006404;28;20033;-76
2023/01/08 02:25:50;;;;;;;31.48;20.23;;;;;;;0.99;100.00;101469.06;5006429;28;20050;-81
2023/01/08 02:28:16;;;;;;;40.03;23.63;;;;;;;0.93;100.00;101479.03;5004266;28;20053;-78
2023/01/08 02:30:43;;;;;;;37.05;21.85;;;;;;;-0.13;100.00;101306.94;5007800;28;20053;-76
2023/01/08 02:33:08;;;;;;;36.65;20.67;;;;;;;0.69;100.00;101455.31;5004966;28;20062;-77
2023/01/08 02:35:39;;;;;;;34.75;23.23;;;;;;;-0.09;100.00;101330.44;5005871;28;20056;-76
2023/01/08 02:38:04;;;;;;;37.78;22.25;;;;;;;-0.09;100.00;101319.22;5003532;28;20065;-75
2023/01/08 02:40:39;;;;;;;34.05;19.88;;;;;;;0.80;100.00;101454.22;5003423;28;20168;-79
2023/01/08 02:43:21;;;;;;;36.72;20.25;;;;;;;0.37;100.00;101394.97;5004287;28;20704;-77
2023/01/08 02:45:51;;;;;;;33.35;22.08;;;;;;;0.10;100.00;101357.28;5008823;28;20049;-77
2023/01/08 02:48:38;;;;;;;35.40;18.98;;;;;;;0.75;100.00;101473.75;5005950;28;20058;-76
2023/01/08 02:51:10;;;;;;;30.30;19.00;;;;;;;0.74;100.00;101473.66;5000117;28;20574;-77
2023/01/08 02:53:43;;;;;;;38.75;21.45;;;;;;;0.72;100.00;101457.19;5003154;28;20045;-76
2023/01/08 02:56:14;;;;;;;32.53;19.50;;;;;;;0.60;100.00;101422.09;5006458;28;20141;-76
2023/01/08 02:58:42;;;;;;;39.13;19.63;;;;;;;0.75;100.00;101460.84;5003591;28;20048;-77
2023/01/08 03:01:10;;;;;;;31.20;18.23;;;;;;;0.68;100.00;101440.63;5015527;28;20070;-77
2023/01/08 03:03:39;;;;;;;32.95;20.33;;;;;;;0.61;100.00;101413.56;5001379;28;20133;-76
2023/01/08 03:06:08;;;;;;;31.15;20.23;;;;;;;0.65;100.00;101427.53;5018098;28;21074;-78
2023/01/08 03:08:37;;;;;;;29.95;16.98;;;;;;;-0.10;100.00;101310.56;5010582;28;20097;-77
2023/01/08 03:11:04;;;;;;;32.42;19.52;;;;;;;0.55;100.00;101425.25;5006076;28;20033;-77
2023/01/08 03:13:44;;;;;;;32.67;16.83;;;;;;;0.01;100.00;101334.44;5008231;28;20432;-78
2023/01/08 03:16:14;;;;;;;34.33;17.88;;;;;;;0.73;100.00;101446.06;4999574;28;20080;-78
2023/01/08 03:18:46;;;;;;;33.85;16.73;;;;;;;0.70;100.00;101453.63;5005725;28;20051;-76
2023/01/08 03:21:14;;;;;;;31.63;15.70;;;;;;;-0.16;100.00;101310.25;5004647;28;20052;-77
2023/01/08 03:23:41;;;;;;;30.85;17.73;;;;;;;0.50;100.00;101430.13;5005381;28;20062;-77
2023/01/08 03:26:08;;;;;;;35.47;20.30;;;;;;;0.69;100.00;101455.31;5000526;28;20259;-78
2023/01/08 03:28:38;;;;;;;36.28;17.88;;;;;;;-0.06;100.00;101312.53;5002276;28;20050;-78
2023/01/08 03:31:05;;;;;;;25.63;16.23;;;;;;;-0.13;100.00;101309.53;5002469;28;20066;-79
2023/01/08 03:33:32;;;;;;;33.08;17.17;;;;;;;-0.07;100.00;101308.19;5003522;28;20068;-80
2023/01/08 03:36:00;;;;;;;33.72;17.55;;;;;;;0.82;100.00;101436.25;5002314;28;20053;-77
2023/01/08 03:38:49;;;;;;;40.33;17.30;;;;;;;0.86;100.00;101443.34;5005776;28;20101;-78
2023/01/08 03:41:20;;;;;;;29.38;19.08;;;;;;;0.88;100.00;101421.06;4996653;28;20059;-81
2023/01/08 03:43:45;;;;;;;26.13;17.30;;;;;;;0.76;100.00;101421.28;5004015;28;20050;-79
2023/01/08 03:46:17;;;;;;;33.22;19.13;;;;;;;0.84;100.00;101429.44;5002016;28;20387;-80
2023/01/08 03:48:44;;;;;;;32.05;19.30;;;;;;;0.63;100.00;101422.28;5002090;28;20044;-77
2023/01/08 03:51:10;;;;;;;38.53;20.90;;;;;;;-0.19;100.00;101285.94;5005227;28;20065;-77
2023/01/08 03:53:36;;;;;;;40.72;20.30;;;;;;;0.75;100.00;101447.00;5005349;28;20056;-78
2023/01/08 03:56:01;;;;;;;28.98;15.55;;;;;;;-0.16;100.00;101278.41;5007701;28;20479;-77
2023/01/08 03:58:26;;;;;;;30.08;18.70;;;;;;;0.72;100.00;101428.75;5005570;28;20645;-77
2023/01/08 04:00:52;;;;;;;34.90;21.45;;;;;;;0.09;100.00;101333.16;5004300;28;20506;-77
2023/01/08 04:03:18;;;;;;;35.47;20.40;;;;;;;0.29;100.00;101383.34;5006262;28;20042;-75
2023/01/08 04:05:43;;;;;;;31.70;17.17;;;;;;;0.49;100.00;101411.97;5007903;28;20050;-77
2023/01/08 04:08:09;;;;;;;24.40;15.35;;;;;;;0.62;100.00;101412.75;5013213;28;20088;-76
2023/01/08 04:10:34;;;;;;;25.40;16.13;;;;;;;0.69;100.00;101419.16;5000808;28;20494;-79
2023/01/08 04:13:00;;;;;;;28.50;17.50;;;;;;;0.21;100.00;101312.31;5003772;28;20561;-77
2023/01/08 04:15:25;;;;;;;27.55;17.00;;;;;;;0.07;100.00;101300.31;5013881;28;20053;-76
2023/01/08 04:17:52;;;;;;;26.65;14.95;;;;;;;0.78;100.00;101436.88;5005701;28;20050;-78
2023/01/08 04:20:18;;;;;;;28.73;17.90;;;;;;;0.17;100.00;101326.75;5007666;28;20117;-80
2023/01/08 04:22:44;;;;;;;27.33;19.10;;;;;;;0.13;100.00;101306.72;5008329;28;20158;-79
2023/01/08 04:25:09;;;;;;;39.33;20.38;;;;;;;0.39;100.00;101323.66;5004883;28;20698;-79
2023/01/08 04:27:35;;;;;;;28.33;15.73;;;;;;;0.91;100.00;101428.09;5006913;28;20132;-77
2023/01/08 04:30:01;;;;;;;33.95;18.67;;;;;;;0.99;100.00;101438.06;5010558;28;20072;-76
2023/01/08 04:32:26;;;;;;;30.17;18.15;;;;;;;1.02;100.00;101440.78;4996085;28;20041;-79
2023/01/08 04:34:52;;;;;;;25.25;16.55;;;;;;;0.90;100.00;101441.81;4998359;28;20037;-82
2023/01/08 04:37:17;;;;;;;29.88;17.30;;;;;;;0.61;100.00;101399.78;5001808;28;20057;-78
2023/01/08 04:39:43;;;;;;;23.75;16.33;;;;;;;0.27;100.00;101353.09;4998903;28;20128;-78
2023/01/08 04:42:08;;;;;;;29.17;16.30;;;;;;;-0.05;100.00;101309.19;5002234;28;20058;-76
2023/01/08 04:44:34;;;;;;;24.38;16.13;;;;;;;-0.18;100.00;101308.38;5002760;28;20477;-74
2023/01/08 04:46:59;;;;;;;33.63;18.75;;;;;;;-0.34;100.00;101288.56;5003147;28;20732;-79
2023/01/08 04:49:25;;;;;;;26.30;17.95;;;;;;;0.32;100.00;101396.41;5005004;28;20137;-81
2023/01/08 04:51:50;;;;;;;25.58;16.92;;;;;;;0.43;100.00;101435.75;5003991;28;20468;-79
2023/01/08 04:54:16;;;;;;;26.65;16.67;;;;;;;-0.34;100.00;101309.19;5001547;28;20407;-77
2023/01/08 04:56:41;;;;;;;28.75;17.90;;;;;;;0.39;100.00;101433.78;4995892;28;20230;-81
2023/01/08 04:59:07;;;;;;;25.30;17.13;;;;;;;0.46;100.00;101459.16;5009618;28;20524;-76
2023/01/08 05:01:32;;;;;;;32.60;17.52;;;;;;;0.34;100.00;101438.69;5001887;28;20041;-77
2023/01/08 05:04:00;;;;;;;28.85;17.15;;;;;;;0.30;100.00;101436.72;5005834;28;20050;-77
2023/01/08 05:06:28;;;;;;;31.65;17.67;;;;;;;-0.41;100.00;101322.50;4995089;28;20136;-78
2023/01/08 05:08:53;;;;;;;24.10;16.10;;;;;;;0.22;100.00;101426.78;5000288;28;20081;-76
2023/01/08 05:11:19;;;;;;;36.28;20.88;;;;;;;-0.40;100.00;101325.16;5003578;28;20068;-81
2023/01/08 05:13:47;;;;;;;31.05;21.83;;;;;;;0.29;100.00;101432.38;5012035;28;20124;-76
2023/01/08 05:16:13;;;;;;;29.48;17.33;;;;;;;0.65;100.00;101496.38;5003396;28;20050;-76
2023/01/08 05:18:38;;;;;;;30.90;16.77;;;;;;;0.68;100.00;101473.28;5004173;28;20560;-74
2023/01/08 05:21:04;;;;;;;31.83;19.35;;;;;;;0.40;100.00;101443.34;5004490;28;20065;-75
2023/01/08 05:23:31;;;;;;;28.63;19.45;;;;;;;0.14;100.00;101356.63;5000194;28;20022;-76
2023/01/08 05:25:58;;;;;;;29.17;18.27;;;;;;;0.71;100.00;101419.25;5004814;28;20042;-78
2023/01/08 05:28:24;;;;;;;27.05;18.67;;;;;;;1.10;100.00;101469.66;4998656;28;20133;-77
2023/01/08 05:30:49;;;;;;;26.20;16.27;;;;;;;0.14;100.00;101312.78;4999421;28;20125;-76
2023/01/08 05:33:15;;;;;;;33.25;18.85;;;;;;;0.87;100.00;101472.63;4997320;28;20521;-76
2023/01/08 05:35:40;;;;;;;33.65;21.13;;;;;;;0.74;100.00;101425.47;5000018;28;20153;-78
2023/01/08 05:38:06;;;;;;;32.05;17.05;;;;;;;0.29;100.00;101348.91;5002730;28;20359;-77
2023/01/08 05:40:32;;;;;;;30.40;18.63;;;;;;;0.37;100.00;101353.66;5005537;28;20099;-78
2023/01/08 05:43:01;;;;;;;27.35;18.70;;;;;;;0.75;100.00;101452.16;5002644;28;20792;-77
2023/01/08 05:45:26;;;;;;;36.50;18.65;;;;;;;0.66;100.00;101438.78;5001854;28;20145;-76
2023/01/08 05:47:53;;;;;;;27.77;18.88;;;;;;;0.60;100.00;101434.13;5003687;28;20049;-77
2023/01/08 05:50:18;;;;;;;35.10;20.90;;;;;;;0.68;100.00;101468.13;4998846;28;20081;-82
2023/01/08 05:52:44;;;;;;;32.38;19.00;;;;;;;0.54;100.00;101465.66;5004432;28;20081;-77
2023/01/08 05:55:10;;;;;;;35.17;19.38;;;;;;;-0.27;100.00;101332.81;5007263;28;20401;-77
2023/01/08 05:57:35;;;;;;;34.75;21.60;;;;;;;-0.30;100.00;101327.50;5007990;28;20034;-77
2023/01/08 06:00:01;;;;;;;38.35;20.88;;;;;;;0.35;100.00;101471.47;5006718;28;20116;-77
2023/01/08 06:02:26;;;;;;;37.13;21.10;;;;;;;-0.27;100.00;101374.09;5014221;28;20034;-78
2023/01/08 06:04:51;;;;;;;41.67;22.92;;;;;;;0.26;100.00;101477.75;5008685;28;20037;-77
2023/01/08 06:07:17;;;;;;;34.08;22.48;;;;;;;-0.48;100.00;101358.22;5012244;28;20050;-79
2023/01/08 06:09:42;;;;;;;37.10;21.98;;;;;;;-0.11;100.00;101424.00;4997158;28;20049;-76
2023/01/08 06:12:08;;;;;;;35.30;22.10;;;;;;;0.36;100.00;101483.56;5003493;28;20054;-76
2023/01/08 06:14:33;;;;;;;34.08;22.50;;;;;;;0.14;100.00;101432.38;4996203;28;20030;-76
2023/01/08 06:16:59;;;;;;;38.70;22.65;;;;;;;-0.35;100.00;101336.66;5011773;28;20026;-78
2023/01/08 06:19:24;;;;;;;32.78;22.13;;;;;;;-0.20;100.00;101352.13;5003924;28;20127;-76
2023/01/08 06:21:50;;;;;;;40.10;22.80;;;;;;;0.58;100.00;101482.22;5006583;28;20141;-76
2023/01/08 06:24:15;;;;;;;44.38;24.77;;;;;;;0.24;100.00;101433.81;5012175;28;20548;-76
2023/01/08 06:26:41;;;;;;;38.05;24.15;;;;;;;0.69;100.00;101483.72;5008724;28;20133;-76
2023/01/08 06:29:07;;;;;;;41.92;24.80;;;;;;;0.55;100.00;101477.75;5007166;28;20557;-76
2023/01/08 06:31:32;;;;;;;41.03;24.92;;;;;;;-0.83;100.00;101226.41;5008946;28;20046;-77
2023/01/08 06:33:58;;;;;;;47.95;25.95;;;;;;;-0.21;100.00;101342.63;5005245;28;20084;-77
2023/01/08 06:36:23;;;;;;;38.05;26.77;;;;;;;-0.06;100.00;101371.88;5007917;28;20049;-78
2023/01/08 06:38:49;;;;;;;43.33;24.38;;;;;;;0.46;100.00;101455.69;5002708;28;20050;-77
2023/01/08 06:41:14;;;;;;;67.72;31.48;;;;;;;-0.12;100.00;101353.44;5006711;28;20530;-76
2023/01/08 06:43:39;;;;;;;47.67;29.48;;;;;;;0.70;100.00;101502.69;5004963;28;20089;-79
2023/01/08 06:46:07;;;;;;;52.30;27.38;;;;;;;0.64;100.00;101485.16;5004550;28;20098;-78
2023/01/08 06:48:33;;;;;;;45.47;26.80;;;;;;;0.75;100.00;101499.59;5003015;28;20054;-76
2023/01/08 06:51:00;;;;;;;44.08;23.83;;;;;;;0.67;100.00;101490.50;5004830;28;20191;-77
2023/01/08 06:53:25;;;;;;;39.58;25.08;;;;;;;-0.28;100.00;101328.47;5003502;28;20439;-78
2023/01/08 06:55:55;;;;;;;40.47;24.27;;;;;;;0.60;100.00;101473.75;5001161;28;20049;-78
2023/01/08 06:58:22;;;;;;;42.33;27.67;;;;;;;-0.15;100.00;101348.13;5006130;28;20149;-77
2023/01/08 07:00:48;;;;;;;42.00;24.05;;;;;;;0.88;100.00;101518.34;5006110;28;20136;-78
2023/01/08 07:03:14;;;;;;;39.85;25.55;;;;;;;0.78;100.00;101498.88;5003916;28;20123;-77
2023/01/08 07:05:39;;;;;;;41.95;25.45;;;;;;;0.78;100.00;101489.41;4997814;28;20581;-77
2023/01/08 07:08:05;;;;;;;43.58;24.95;;;;;;;0.89;100.00;101502.03;5005442;28;20109;-77
2023/01/08 07:10:30;;;;;;;36.95;20.88;;;;;;;0.76;100.00;101484.97;4997168;28;20057;-79
2023/01/08 07:12:56;;;;;;;56.53;28.88;;;;;;;0.78;100.00;101473.91;5003882;28;20042;-77
2023/01/08 07:15:22;;;;;;;51.95;27.17;;;;;;;1.14;100.00;101530.16;5001257;28;20138;-80
2023/01/08 07:17:48;;;;;;;50.60;26.50;;;;;;;1.04;100.00;101505.50;5001935;28;20474;-77
2023/01/08 07:20:13;;;;;;;45.20;25.00;;;;;;;0.55;100.00;101402.88;5000917;28;20383;-77
2023/01/08 07:22:38;;;;;;;42.17;25.95;;;;;;;1.09;100.00;101492.84;5002064;28;20053;-77
2023/01/08 07:25:04;;;;;;;61.50;28.23;;;;;;;1.37;100.00;101521.09;5006843;28;20104;-77
2023/01/08 07:27:30;;;;;;;40.60;28.58;;;;;;;1.42;100.00;101496.38;5004252;28;20104;-77
2023/01/08 07:29:55;;;;;;;85.07;32.22;;;;;;;1.62;100.00;101523.34;5004909;28;20045;-76
2023/01/08 07:32:21;;;;;;;45.78;27.45;;;;;;;0.93;100.00;101361.88;5005920;28;20037;-80
2023/01/08 07:34:47;;;;;;;36.15;28.42;;;;;;;0.81;100.00;101363.00;4999543;28;20042;-78
2023/01/08 07:37:13;;;;;;;38.50;24.38;;;;;;;1.81;100.00;101502.81;4999057;28;20100;-82
2023/01/08 07:39:38;;;;;;;52.47;30.67;;;;;;;1.62;100.00;101525.94;5002133;28;20087;-79
2023/01/08 07:42:04;;;;;;;46.42;27.95;;;;;;;1.58;100.00;101504.16;5004891;28;20130;-75
2023/01/08 07:44:30;;;;;;;45.10;30.58;;;;;;;0.98;100.00;101399.19;5001295;28;20095;-78
2023/01/08 07:46:55;;;;;;;50.03;28.63;;;;;;;1.63;100.00;101499.25;5008152;28;20025;-77
2023/01/08 07:49:20;;;;;;;53.30;32.40;;;;;;;1.12;100.00;101379.28;5003654;28;20497;-77
2023/01/08 07:51:48;;;;;;;59.55;32.30;;;;;;;1.02;100.00;101391.69;5005570;28;20065;-79
2023/01/08 07:54:13;;;;;;;55.72;31.60;;;;;;;0.97;100.00;101358.69;5003320;28;20062;-78
2023/01/08 07:56:39;;;;;;;58.97;29.38;;;;;;;1.22;100.00;101412.59;5004782;28;20049;-77
2023/01/08 07:59:04;;;;;;;58.67;32.83;;;;;;;1.35;100.00;101422.75;5008404;28;20037;-77
2023/01/08 08:01:30;;;;;;;42.20;24.33;;;;;;;1.42;100.00;101409.34;5004847;28;20049;-76
2023/01/08 08:03:55;;;;;;;90.53;30.25;;;;;;;1.74;100.00;101487.75;5000554;28;20058;-78
2023/01/08 08:06:21;;;;;;;100.80;33.63;;;;;;;1.89;100.00;101523.91;5005747;28;20049;-79
2023/01/08 08:08:46;;;;;;;46.55;25.20;;;;;;;1.84;100.00;101508.13;5005361;28;20052;-76
2023/01/08 08:11:12;;;;;;;75.65;26.60;;;;;;;1.80;100.00;101519.16;4996380;28;20041;-78
2023/01/08 08:13:41;;;;;;;98.10;26.20;;;;;;;1.26;100.00;101410.25;4990920;28;20058;-75
2023/01/08 08:16:07;;;;;;;38.08;21.92;;;;;;;2.03;100.00;101522.03;5014532;28;20042;-80
2023/01/08 08:18:32;;;;;;;63.63;24.75;;;;;;;1.85;100.00;101489.22;4998613;28;20351;-77
2023/01/08 08:20:58;;;;;;;66.72;24.67;;;;;;;2.07;100.00;101547.28;5002128;28;20067;-78
2023/01/08 08:23:24;;;;;;;57.78;22.88;;;;;;;2.13;100.00;101554.47;5007094;28;20074;-76
2023/01/08 08:25:50;;;;;;;46.47;25.52;;;;;;;1.85;100.00;101442.66;5006524;28;20478;-79
2023/01/08 08:28:16;;;;;;;99.10;23.63;;;;;;;2.28;100.00;101545.81;5002692;28;20052;-77
2023/01/08 08:30:42;;;;;;;50.33;22.33;;;;;;;1.87;100.00;101446.22;5005770;28;20045;-77
2023/01/08 08:33:08;;;;;;;44.95;23.85;;;;;;;1.61;100.00;101418.94;4997192;28;20109;-76
2023/01/08 08:35:34;;;;;;;44.50;22.63;;;;;;;2.28;100.00;101535.47;5001239;28;20053;-78
2023/01/08 08:38:00;;;;;;;52.63;25.27;;;;;;;2.02;100.00;101509.94;5005425;28;20604;-77
2023/01/08 08:40:26;;;;;;;56.97;27.10;;;;;;;1.75;100.00;101465.38;5001529;28;20038;-78
2023/01/08 08:42:56;;;;;;;114.18;28.02;;;;;;;1.40;100.00;101399.72;4996427;28;20053;-78
2023/01/08 08:45:22;;;;;;;38.90;22.92;;;;;;;2.32;100.00;101540.00;5001572;28;20054;-78
2023/01/08 08:47:47;;;;;;;40.42;23.98;;;;;;;2.48;100.00;101522.63;4993511;28;20048;-77
2023/01/08 08:50:13;;;;;;;40.70;22.48;;;;;;;1.88;100.00;101421.22;4986893;28;20057;-76
2023/01/08 08:52:38;;;;;;;41.72;22.48;;;;;;;2.47;100.00;101511.38;4995837;28;20058;-77
2023/01/08 08:55:05;;;;;;;30.15;20.80;;;;;;;2.63;100.00;101533.78;5004015;28;20050;-77
2023/01/08 08:57:31;;;;;;;48.00;24.75;;;;;;;2.73;100.00;101524.75;5002593;28;20125;-77
2023/01/08 08:59:56;;;;;;;44.13;27.50;;;;;;;2.16;100.00;101420.03;5005384;28;20124;-77
2023/01/08 09:02:22;;;;;;;45.95;20.67;;;;;;;2.15;100.00;101401.00;4997782;28;20049;-78
2023/01/08 09:04:47;;;;;;;42.33;22.67;;;;;;;2.16;100.00;101412.25;4994143;28;20444;-76
2023/01/08 09:07:13;;;;;;;37.35;21.08;;;;;;;1.76;100.00;101330.03;4997520;28;20053;-81
2023/01/08 09:09:38;;;;;;;43.42;24.70;;;;;;;2.84;100.00;101509.75;4996567;28;21275;-78
2023/01/08 09:12:04;;;;;;;43.47;22.58;;;;;;;2.24;100.00;101383.34;4998559;28;20057;-79
2023/01/08 09:14:29;;;;;;;46.65;22.75;;;;;;;2.82;100.00;101483.75;4999117;28;20045;-81
2023/01/08 09:16:55;;;;;;;38.40;22.02;;;;;;;2.28;100.00;101390.44;5010335;28;20026;-77
2023/01/08 09:19:21;;;;;;;41.88;20.50;;;;;;;2.93;100.00;101500.72;5012615;28;20508;-78
2023/01/08 09:21:49;;;;;;;41.60;21.73;;;;;;;2.88;100.00;101472.78;5000442;28;20153;-77
2023/01/08 09:24:14;;;;;;;34.35;21.17;;;;;;;2.95;100.00;101493.91;5008873;28;20137;-78
2023/01/08 09:26:40;;;;;;;34.92;20.45;;;;;;;3.35;100.00;101519.13;5009703;28;20060;-78
2023/01/08 09:29:05;;;;;;;40.50;21.73;;;;;;;3.44;100.00;101495.34;5010288;28;20104;-79
2023/01/08 09:31:32;;;;;;;42.63;23.00;;;;;;;2.87;100.00;101388.06;5006387;28;20038;-79
2023/01/08 09:33:58;;;;;;;39.00;22.80;;;;;;;2.61;100.00;101341.09;5001832;28;20045;-79
2023/01/08 09:36:23;;;;;;;31.90;19.35;;;;;;;3.02;100.00;101382.69;5004511;28;20488;-78
2023/01/08 09:38:49;;;;;;;41.90;23.45;;;;;;;3.76;100.00;101496.78;5011756;28;20523;-79
2023/01/08 09:41:32;;;;;;;37.05;21.17;;;;;;;3.68;100.00;101474.78;4998751;28;20038;-76
2023/01/08 09:43:59;;;;;;;42.15;21.95;;;;;;;3.53;100.00;101428.25;5014578;28;20501;-78
2023/01/08 09:46:27;;;;;;;37.72;21.33;;;;;;;3.94;100.00;101475.06;5009417;28;20164;-79
2023/01/08 09:48:57;;;;;;;34.78;23.05;;;;;;;4.22;100.00;101462.44;5008046;28;20590;-79
2023/01/08 09:51:30;;;;;;;36.72;22.42;;;;;;;4.02;100.00;101434.72;5006765;28;20058;-78
2023/01/08 09:53:56;;;;;;;37.95;23.48;;;;;;;3.71;100.00;101358.13;5007627;28;20045;-78
2023/01/08 09:56:22;;;;;;;41.92;22.95;;;;;;;4.10;100.00;101422.09;5012565;28;20379;-79
2023/01/08 09:58:53;;;;;;;43.70;26.30;;;;;;;3.51;100.00;101320.97;5007084;28;20065;-78
2023/01/08 10:01:22;;;;;;;45.75;26.67;;;;;;;4.00;100.00;101392.22;5005938;28;20096;-77
2023/01/08 10:03:54;;;;;;;35.85;23.50;;;;;;;4.17;100.00;101427.59;5008288;28;20042;-78
2023/01/08 10:06:24;;;;;;;52.40;25.52;;;;;;;3.86;100.00;101357.00;5000491;28;20058;-80
2023/01/08 10:08:51;;;;;;;44.20;28.38;;;;;;;3.77;100.00;101303.91;5007384;28;20073;-79
2023/01/08 10:11:17;;;;;;;48.05;24.98;;;;;;;3.67;100.00;101291.34;5005871;28;20034;-79
2023/01/08 10:13:51;;;;;;;37.55;25.08;;;;;;;4.51;100.00;101438.50;5002422;28;20026;-77
2023/01/08 10:16:36;;;;;;;43.33;25.73;;;;;;;3.76;100.00;101283.94;5005518;28;20050;-78
2023/01/08 10:19:03;;;;;;;39.30;24.30;;;;;;;4.60;100.00;101402.50;4999836;28;20122;-78
2023/01/08 10:21:35;;;;;;;31.42;22.40;;;;;;;4.53;100.00;101419.56;5001092;28;20073;-80
2023/01/08 10:24:01;;;;;;;41.10;26.38;;;;;;;4.43;100.00;101388.84;5001694;28;20753;-79
2023/01/08 10:26:35;;;;;;;39.42;24.65;;;;;;;4.02;100.00;101281.53;4998791;28;20042;-76
2023/01/08 10:29:15;;;;;;;37.47;23.98;;;;;;;4.31;100.00;101286.97;5005117;28;20134;-76
2023/01/08 10:32:07;;;;;;;39.90;25.77;;;;;;;4.51;100.00;101279.97;5005654;28;20107;-76
2023/01/08 10:34:46;;;;;;;40.90;22.25;;;;;;;5.11;100.00;101379.34;5002532;28;20108;-75
2023/01/08 10:37:16;;;;;;;43.92;24.58;;;;;;;5.10;100.00;101385.38;4999462;28;20057;-76
2023/01/08 10:39:48;;;;;;;48.13;27.20;;;;;;;5.06;100.00;101362.69;4997854;28;20049;-78
2023/01/08 10:42:17;;;;;;;43.92;27.35;;;;;;;4.92;100.00;101343.09;4998558;28;20065;-77
2023/01/08 10:45:01;;;;;;;42.10;25.90;;;;;;;4.91;100.00;101342.19;5004015;28;20053;-76
2023/01/08 10:47:29;;;;;;;;;;;;;;;5.14;100.00;101357.78;5007518;28;20083;-77
2023/01/08 10:49:57;;;;;;;46.47;27.27;;;;;;;4.59;100.00;101245.66;5004625;28;20249;-77
2023/01/08 10:52:31;;;;;;;43.83;29.60;;;;;;;4.50;100.00;101250.53;5001220;28;20049;-76
2023/01/08 10:55:09;;;;;;;31.63;20.42;;;;;;;4.16;100.00;101228.41;4994948;28;20152;-76
2023/01/08 10:57:35;;;;;;;37.95;24.20;;;;;;;4.98;100.00;101351.97;5001856;28;20069;-77
2023/01/08 11:00:00;;;;;;;35.25;20.45;;;;;;;4.23;100.00;101247.72;4996737;28;20497;-76
2023/01/08 11:02:36;;;;;;;39.30;24.13;;;;;;;4.92;100.00;101324.88;5005049;28;20103;-83
2023/01/08 11:05:04;;;;;;;39.30;22.30;;;;;;;4.56;100.00;101236.84;4994352;28;20045;-79
2023/01/08 11:07:31;;;;;;;36.55;24.48;;;;;;;4.90;100.00;101259.81;4998063;28;20049;-77
2023/01/08 11:09:56;;;;;;;41.60;24.98;;;;;;;5.22;100.00;101315.59;4996833;28;20109;-77
2023/01/08 11:12:34;;;;;;;35.97;23.42;;;;;;;5.58;100.00;101328.16;5004520;28;20050;-77